sensor_id;sensor_type;location;lat;lon;timestamp;pressure;altitude;pressure_sealevel;temperature;humidity
48718;BME280;34521;33.042;-96.586;2023-04-07T00:00:09;100463.85;;;16.96;34.10
48718;BME280;34521;33.042;-96.586;2023-04-07T00:02:32;100460.12;;;17.86;33.54
48718;BME280;34521;33.042;-96.586;2023-04-07T00:04:57;100452.20;;;19.70;30.58
48718;BME280;34521;33.042;-96.586;2023-04-07T00:07:22;100453.76;;;20.61;29.29
48718;BME280;34521;33.042;-96.586;2023-04-07T00:09:47;100454.15;;;20.46;29.11
48718;BME280;34521;33.042;-96.586;2023-04-07T00:12:12;100444.27;;;20.92;28.87
48718;BME280;34521;33.042;-96.586;2023-04-07T00:14:37;100441.33;;;20.89;28.59
48718;BME280;34521;33.042;-96.586;2023-04-07T00:17:02;100445.56;;;19.90;29.35
48718;BME280;34521;33.042;-96.586;2023-04-07T00:19:27;100440.73;;;20.48;28.89
48718;BME280;34521;33.042;-96.586;2023-04-07T00:21:52;100441.21;;;21.11;28.56
48718;BME280;34521;33.042;-96.586;2023-04-07T00:24:17;100443.55;;;20.70;28.76
48718;BME280;34521;33.042;-96.586;2023-04-07T00:26:42;100440.27;;;20.81;28.67
48718;BME280;34521;33.042;-96.586;2023-04-07T00:29:07;100443.48;;;20.65;28.81
48718;BME280;34521;33.042;-96.586;2023-04-07T00:31:32;100433.15;;;20.70;28.75
48718;BME280;34521;33.042;-96.586;2023-04-07T00:33:57;100425.42;;;20.67;28.75
48718;BME280;34521;33.042;-96.586;2023-04-07T00:36:23;100414.16;;;21.51;28.39
48718;BME280;34521;33.042;-96.586;2023-04-07T00:38:48;100429.14;;;20.69;28.71
48718;BME280;34521;33.042;-96.586;2023-04-07T00:41:12;100439.82;;;20.62;28.77
48718;BME280;34521;33.042;-96.586;2023-04-07T00:43:38;100447.29;;;20.88;28.51
48718;BME280;34521;33.042;-96.586;2023-04-07T00:46:03;100453.78;;;20.79;28.59
48718;BME280;34521;33.042;-96.586;2023-04-07T00:48:28;100459.47;;;20.70;28.70
48718;BME280;34521;33.042;-96.586;2023-04-07T00:50:53;100459.28;;;20.63;28.68
48718;BME280;34521;33.042;-96.586;2023-04-07T00:53:23;100461.08;;;20.72;28.61
48718;BME280;34521;33.042;-96.586;2023-04-07T00:55:43;100478.14;;;18.07;31.94
48718;BME280;34521;33.042;-96.586;2023-04-07T00:58:08;100479.22;;;17.33;33.84
48718;BME280;34521;33.042;-96.586;2023-04-07T01:00:37;100477.15;;;17.24;34.31
48718;BME280;34521;33.042;-96.586;2023-04-07T01:03:04;100471.30;;;19.28;31.09
48718;BME280;34521;33.042;-96.586;2023-04-07T01:05:28;100471.51;;;20.27;29.59
48718;BME280;34521;33.042;-96.586;2023-04-07T01:07:54;100465.67;;;20.37;29.45
48718;BME280;34521;33.042;-96.586;2023-04-07T01:10:18;100464.80;;;20.41;28.78
48718;BME280;34521;33.042;-96.586;2023-04-07T01:12:45;100468.25;;;20.04;29.69
48718;BME280;34521;33.042;-96.586;2023-04-07T01:15:09;100473.45;;;20.75;28.79
48718;BME280;34521;33.042;-96.586;2023-04-07T01:17:29;100473.70;;;20.76;28.55
48718;BME280;34521;33.042;-96.586;2023-04-07T01:19:57;100472.30;;;20.81;28.57
48718;BME280;34521;33.042;-96.586;2023-04-07T01:22:23;100474.50;;;21.23;28.31
48718;BME280;34521;33.042;-96.586;2023-04-07T01:24:59;100480.62;;;20.78;28.49
48718;BME280;34521;33.042;-96.586;2023-04-07T01:27:20;100489.06;;;20.70;28.65
48718;BME280;34521;33.042;-96.586;2023-04-07T01:29:35;100495.96;;;20.64;28.77
48718;BME280;34521;33.042;-96.586;2023-04-07T01:32:01;100499.73;;;20.89;28.70
48718;BME280;34521;33.042;-96.586;2023-04-07T01:34:26;100501.78;;;20.69;28.64
48718;BME280;34521;33.042;-96.586;2023-04-07T01:36:49;100510.27;;;20.56;28.74
48718;BME280;34521;33.042;-96.586;2023-04-07T01:39:14;100524.03;;;21.06;28.40
48718;BME280;34521;33.042;-96.586;2023-04-07T01:41:39;100529.54;;;20.77;28.47
48718;BME280;34521;33.042;-96.586;2023-04-07T01:44:05;100542.25;;;20.90;28.35
48718;BME280;34521;33.042;-96.586;2023-04-07T01:46:29;100549.25;;;20.62;28.59
48718;BME280;34521;33.042;-96.586;2023-04-07T01:48:55;100558.38;;;20.70;28.50
48718;BME280;34521;33.042;-96.586;2023-04-07T01:51:20;100559.91;;;20.71;28.46
48718;BME280;34521;33.042;-96.586;2023-04-07T01:53:45;100564.34;;;17.60;32.46
48718;BME280;34521;33.042;-96.586;2023-04-07T01:56:09;100574.24;;;16.60;34.53
48718;BME280;34521;33.042;-96.586;2023-04-07T01:58:34;100584.84;;;16.77;34.89
48718;BME280;34521;33.042;-96.586;2023-04-07T02:00:59;100586.15;;;18.62;32.78
48718;BME280;34521;33.042;-96.586;2023-04-07T02:03:28;100592.15;;;19.43;30.41
48718;BME280;34521;33.042;-96.586;2023-04-07T02:05:53;100599.73;;;20.41;29.37
48718;BME280;34521;33.042;-96.586;2023-04-07T02:08:16;100599.53;;;20.97;28.69
48718;BME280;34521;33.042;-96.586;2023-04-07T02:10:40;100594.98;;;21.44;28.07
48718;BME280;34521;33.042;-96.586;2023-04-07T02:13:06;100587.64;;;19.45;30.01
48718;BME280;34521;33.042;-96.586;2023-04-07T02:15:30;100593.78;;;20.10;29.26
48718;BME280;34521;33.042;-96.586;2023-04-07T02:17:56;100600.23;;;20.32;28.91
48718;BME280;34521;33.042;-96.586;2023-04-07T02:20:21;100603.69;;;20.06;29.08
48718;BME280;34521;33.042;-96.586;2023-04-07T02:22:45;100609.81;;;20.39;29.01
48718;BME280;34521;33.042;-96.586;2023-04-07T02:25:21;100610.32;;;19.97;29.45
48718;BME280;34521;33.042;-96.586;2023-04-07T02:27:35;100613.50;;;20.28;29.33
48718;BME280;34521;33.042;-96.586;2023-04-07T02:30:00;100605.93;;;20.04;29.56
48718;BME280;34521;33.042;-96.586;2023-04-07T02:32:25;100603.21;;;19.98;29.41
48718;BME280;34521;33.042;-96.586;2023-04-07T02:34:50;100602.35;;;19.88;29.55
48718;BME280;34521;33.042;-96.586;2023-04-07T02:37:15;100621.80;;;19.51;29.68
48718;BME280;34521;33.042;-96.586;2023-04-07T02:39:40;100634.52;;;19.81;29.60
48718;BME280;34521;33.042;-96.586;2023-04-07T02:42:05;100639.71;;;19.59;29.58
48718;BME280;34521;33.042;-96.586;2023-04-07T02:44:30;100637.09;;;19.78;29.60
48718;BME280;34521;33.042;-96.586;2023-04-07T02:46:55;100637.53;;;20.30;29.26
48718;BME280;34521;33.042;-96.586;2023-04-07T02:49:21;100643.32;;;18.17;31.87
48718;BME280;34521;33.042;-96.586;2023-04-07T02:51:45;100633.72;;;18.23;32.24
48718;BME280;34521;33.042;-96.586;2023-04-07T02:54:11;100624.70;;;20.15;29.79
48718;BME280;34521;33.042;-96.586;2023-04-07T02:56:35;100620.24;;;20.99;28.56
48718;BME280;34521;33.042;-96.586;2023-04-07T02:59:01;100627.91;;;19.66;29.91
48718;BME280;34521;33.042;-96.586;2023-04-07T03:01:26;100623.64;;;21.19;28.26
48718;BME280;34521;33.042;-96.586;2023-04-07T03:03:51;100625.12;;;21.47;27.83
48718;BME280;34521;33.042;-96.586;2023-04-07T03:06:16;100629.01;;;20.70;28.33
48718;BME280;34521;33.042;-96.586;2023-04-07T03:08:41;100631.71;;;20.50;28.81
48718;BME280;34521;33.042;-96.586;2023-04-07T03:11:06;100642.60;;;20.83;28.75
48718;BME280;34521;33.042;-96.586;2023-04-07T03:13:31;100641.97;;;20.60;28.71
48718;BME280;34521;33.042;-96.586;2023-04-07T03:15:56;100635.69;;;20.18;28.81
48718;BME280;34521;33.042;-96.586;2023-04-07T03:18:21;100632.11;;;20.65;28.62
48718;BME280;34521;33.042;-96.586;2023-04-07T03:20:48;100633.48;;;20.63;28.54
48718;BME280;34521;33.042;-96.586;2023-04-07T03:23:11;100640.25;;;20.43;28.77
48718;BME280;34521;33.042;-96.586;2023-04-07T03:25:36;100643.03;;;20.53;28.95
48718;BME280;34521;33.042;-96.586;2023-04-07T03:28:01;100647.82;;;20.07;29.16
48718;BME280;34521;33.042;-96.586;2023-04-07T03:30:26;100646.83;;;20.17;29.04
48718;BME280;34521;33.042;-96.586;2023-04-07T03:32:51;100651.39;;;20.24;29.24
48718;BME280;34521;33.042;-96.586;2023-04-07T03:35:17;100648.08;;;19.90;29.62
48718;BME280;34521;33.042;-96.586;2023-04-07T03:37:41;100652.72;;;19.92;29.63
48718;BME280;34521;33.042;-96.586;2023-04-07T03:40:08;100658.62;;;19.97;29.58
48718;BME280;34521;33.042;-96.586;2023-04-07T03:42:32;100661.97;;;19.87;29.41
48718;BME280;34521;33.042;-96.586;2023-04-07T03:44:56;100662.20;;;19.60;29.66
48718;BME280;34521;33.042;-96.586;2023-04-07T03:47:22;100665.17;;;18.25;31.67
48718;BME280;34521;33.042;-96.586;2023-04-07T03:49:47;100676.34;;;16.86;34.43
48718;BME280;34521;33.042;-96.586;2023-04-07T03:52:12;100682.01;;;16.85;34.76
48718;BME280;34521;33.042;-96.586;2023-04-07T03:54:37;100677.02;;;19.68;30.55
48718;BME280;34521;33.042;-96.586;2023-04-07T03:57:02;100674.93;;;20.23;29.58
48718;BME280;34521;33.042;-96.586;2023-04-07T03:59:27;100674.71;;;20.76;29.01
48718;BME280;34521;33.042;-96.586;2023-04-07T04:01:52;100674.97;;;20.80;28.84
48718;BME280;34521;33.042;-96.586;2023-04-07T04:04:17;100677.26;;;20.93;28.43
48718;BME280;34521;33.042;-96.586;2023-04-07T04:06:42;100674.09;;;20.93;28.33
48718;BME280;34521;33.042;-96.586;2023-04-07T04:09:07;100677.57;;;20.81;28.43
48718;BME280;34521;33.042;-96.586;2023-04-07T04:11:32;100680.17;;;21.18;28.04
48718;BME280;34521;33.042;-96.586;2023-04-07T04:13:57;100687.72;;;20.50;28.68
48718;BME280;34521;33.042;-96.586;2023-04-07T04:16:27;100696.25;;;20.38;29.07
48718;BME280;34521;33.042;-96.586;2023-04-07T04:18:47;100697.05;;;19.97;29.30
48718;BME280;34521;33.042;-96.586;2023-04-07T04:21:12;100689.40;;;20.81;28.61
48718;BME280;34521;33.042;-96.586;2023-04-07T04:23:37;100680.77;;;20.75;28.70
48718;BME280;34521;33.042;-96.586;2023-04-07T04:26:03;100678.67;;;20.47;28.93
48718;BME280;34521;33.042;-96.586;2023-04-07T04:28:28;100675.39;;;20.93;28.46
48718;BME280;34521;33.042;-96.586;2023-04-07T04:30:52;100665.67;;;20.73;28.66
48718;BME280;34521;33.042;-96.586;2023-04-07T04:33:17;100675.18;;;20.44;28.94
48718;BME280;34521;33.042;-96.586;2023-04-07T04:35:44;100683.83;;;20.62;28.79
48718;BME280;34521;33.042;-96.586;2023-04-07T04:38:08;100683.71;;;20.21;29.23
48718;BME280;34521;33.042;-96.586;2023-04-07T04:40:32;100674.46;;;20.09;29.32
48718;BME280;34521;33.042;-96.586;2023-04-07T04:42:58;100667.13;;;20.10;29.34
48718;BME280;34521;33.042;-96.586;2023-04-07T04:45:23;100673.75;;;18.61;31.58
48718;BME280;34521;33.042;-96.586;2023-04-07T04:47:48;100693.96;;;16.50;34.17
48718;BME280;34521;33.042;-96.586;2023-04-07T04:50:13;100697.20;;;16.80;34.82
48718;BME280;34521;33.042;-96.586;2023-04-07T04:52:43;100688.94;;;19.48;31.00
48718;BME280;34521;33.042;-96.586;2023-04-07T04:55:03;100679.73;;;20.21;29.84
48718;BME280;34521;33.042;-96.586;2023-04-07T04:57:28;100682.19;;;21.01;28.79
48718;BME280;34521;33.042;-96.586;2023-04-07T04:59:53;100691.18;;;20.58;29.04
48718;BME280;34521;33.042;-96.586;2023-04-07T05:02:18;100689.88;;;20.43;28.67
48718;BME280;34521;33.042;-96.586;2023-04-07T05:04:43;100689.67;;;21.01;28.26
48718;BME280;34521;33.042;-96.586;2023-04-07T05:07:08;100698.23;;;20.88;28.11
48718;BME280;34521;33.042;-96.586;2023-04-07T05:09:34;100698.37;;;21.22;28.20
48718;BME280;34521;33.042;-96.586;2023-04-07T05:11:58;100683.74;;;21.10;28.10
48718;BME280;34521;33.042;-96.586;2023-04-07T05:14:24;100656.37;;;20.57;28.32
48718;BME280;34521;33.042;-96.586;2023-04-07T05:16:48;100648.47;;;20.65;28.48
48718;BME280;34521;33.042;-96.586;2023-04-07T05:19:13;100648.81;;;20.94;28.13
48718;BME280;34521;33.042;-96.586;2023-04-07T05:21:38;100643.39;;;20.70;28.36
48718;BME280;34521;33.042;-96.586;2023-04-07T05:24:04;100640.83;;;20.59;28.48
48718;BME280;34521;33.042;-96.586;2023-04-07T05:26:28;100639.27;;;20.75;28.37
48718;BME280;34521;33.042;-96.586;2023-04-07T05:28:54;100640.46;;;20.70;28.39
48718;BME280;34521;33.042;-96.586;2023-04-07T05:31:19;100641.23;;;20.22;28.90
48718;BME280;34521;33.042;-96.586;2023-04-07T05:33:43;100646.27;;;19.94;29.16
48718;BME280;34521;33.042;-96.586;2023-04-07T05:36:09;100646.15;;;19.86;29.29
48718;BME280;34521;33.042;-96.586;2023-04-07T05:38:34;100654.11;;;20.16;29.24
48718;BME280;34521;33.042;-96.586;2023-04-07T05:40:59;100660.04;;;20.24;29.14
48718;BME280;34521;33.042;-96.586;2023-04-07T05:43:24;100665.93;;;19.98;29.43
48718;BME280;34521;33.042;-96.586;2023-04-07T05:45:49;100673.19;;;18.12;31.67
48718;BME280;34521;33.042;-96.586;2023-04-07T05:48:14;100680.91;;;16.37;34.33
48718;BME280;34521;33.042;-96.586;2023-04-07T05:50:39;100682.23;;;17.24;33.93
48718;BME280;34521;33.042;-96.586;2023-04-07T05:53:04;100670.97;;;19.75;30.44
48718;BME280;34521;33.042;-96.586;2023-04-07T05:55:29;100669.19;;;20.20;29.28
48718;BME280;34521;33.042;-96.586;2023-04-07T05:57:54;100672.50;;;20.53;28.97
48718;BME280;34521;33.042;-96.586;2023-04-07T06:00:20;100669.30;;;20.56;28.77
48718;BME280;34521;33.042;-96.586;2023-04-07T06:02:44;100678.12;;;20.81;28.48
48718;BME280;34521;33.042;-96.586;2023-04-07T06:05:09;100683.92;;;20.86;28.34
48718;BME280;34521;33.042;-96.586;2023-04-07T06:07:34;100690.34;;;21.39;28.05
48718;BME280;34521;33.042;-96.586;2023-04-07T06:10:00;100696.77;;;20.92;28.26
48718;BME280;34521;33.042;-96.586;2023-04-07T06:12:24;100699.48;;;20.45;28.72
48718;BME280;34521;33.042;-96.586;2023-04-07T06:14:52;100698.34;;;20.52;28.66
48718;BME280;34521;33.042;-96.586;2023-04-07T06:17:14;100691.92;;;20.83;28.30
48718;BME280;34521;33.042;-96.586;2023-04-07T06:19:39;100695.19;;;20.29;28.58
48718;BME280;34521;33.042;-96.586;2023-04-07T06:22:05;100701.95;;;20.78;28.58
48718;BME280;34521;33.042;-96.586;2023-04-07T06:24:29;100715.60;;;20.82;28.52
48718;BME280;34521;33.042;-96.586;2023-04-07T06:26:55;100718.04;;;20.86;28.42
48718;BME280;34521;33.042;-96.586;2023-04-07T06:29:20;100712.52;;;19.90;28.97
48718;BME280;34521;33.042;-96.586;2023-04-07T06:31:45;100709.31;;;19.94;28.93
48718;BME280;34521;33.042;-96.586;2023-04-07T06:34:10;100712.93;;;20.31;29.05
48718;BME280;34521;33.042;-96.586;2023-04-07T06:36:35;100714.40;;;20.28;29.11
48718;BME280;34521;33.042;-96.586;2023-04-07T06:39:00;100718.42;;;20.07;29.32
48718;BME280;34521;33.042;-96.586;2023-04-07T06:41:25;100711.47;;;19.65;29.47
48718;BME280;34521;33.042;-96.586;2023-04-07T06:43:50;100702.49;;;18.02;31.79
48718;BME280;34521;33.042;-96.586;2023-04-07T06:46:15;100702.53;;;16.76;34.46
48718;BME280;34521;33.042;-96.586;2023-04-07T06:48:40;100697.66;;;16.77;34.82
48718;BME280;34521;33.042;-96.586;2023-04-07T06:51:05;100681.01;;;18.53;32.18
48718;BME280;34521;33.042;-96.586;2023-04-07T06:53:30;100674.01;;;19.96;29.78
48718;BME280;34521;33.042;-96.586;2023-04-07T06:56:02;100672.51;;;20.69;29.27
48718;BME280;34521;33.042;-96.586;2023-04-07T06:58:20;100671.40;;;20.36;29.23
48718;BME280;34521;33.042;-96.586;2023-04-07T07:00:45;100659.06;;;20.65;28.90
48718;BME280;34521;33.042;-96.586;2023-04-07T07:03:11;100651.62;;;20.66;28.59
48718;BME280;34521;33.042;-96.586;2023-04-07T07:05:36;100639.79;;;21.05;28.37
48718;BME280;34521;33.042;-96.586;2023-04-07T07:08:00;100646.87;;;20.87;28.54
48718;BME280;34521;33.042;-96.586;2023-04-07T07:10:26;100644.91;;;20.45;28.73
48718;BME280;34521;33.042;-96.586;2023-04-07T07:12:51;100628.11;;;20.93;28.37
48718;BME280;34521;33.042;-96.586;2023-04-07T07:15:16;100626.11;;;20.44;28.65
48718;BME280;34521;33.042;-96.586;2023-04-07T07:17:41;100635.88;;;20.58;28.53
48718;BME280;34521;33.042;-96.586;2023-04-07T07:20:07;100638.06;;;20.91;28.39
48718;BME280;34521;33.042;-96.586;2023-04-07T07:22:31;100638.55;;;21.02;28.26
48718;BME280;34521;33.042;-96.586;2023-04-07T07:24:56;100637.50;;;20.34;28.76
48718;BME280;34521;33.042;-96.586;2023-04-07T07:27:21;100638.25;;;20.50;28.78
48718;BME280;34521;33.042;-96.586;2023-04-07T07:29:46;100641.73;;;20.07;29.27
48718;BME280;34521;33.042;-96.586;2023-04-07T07:32:11;100638.82;;;19.88;29.45
48718;BME280;34521;33.042;-96.586;2023-04-07T07:34:36;100627.75;;;19.87;29.48
48718;BME280;34521;33.042;-96.586;2023-04-07T07:37:01;100622.51;;;19.59;29.56
48718;BME280;34521;33.042;-96.586;2023-04-07T07:39:27;100627.20;;;19.82;29.54
48718;BME280;34521;33.042;-96.586;2023-04-07T07:41:51;100632.63;;;18.13;31.63
48718;BME280;34521;33.042;-96.586;2023-04-07T07:44:16;100634.41;;;17.11;33.97
48718;BME280;34521;33.042;-96.586;2023-04-07T07:46:42;100620.56;;;18.24;32.43
48718;BME280;34521;33.042;-96.586;2023-04-07T07:49:07;100618.04;;;19.87;29.84
48718;BME280;34521;33.042;-96.586;2023-04-07T07:51:32;100617.08;;;20.43;29.28
48718;BME280;34521;33.042;-96.586;2023-04-07T07:53:57;100614.07;;;20.04;29.80
48718;BME280;34521;33.042;-96.586;2023-04-07T07:56:22;100613.29;;;20.48;29.37
48718;BME280;34521;33.042;-96.586;2023-04-07T07:58:47;100620.84;;;20.71;28.80
48718;BME280;34521;33.042;-96.586;2023-04-07T08:01:12;100631.27;;;20.94;28.55
48718;BME280;34521;33.042;-96.586;2023-04-07T08:03:37;100623.75;;;20.76;28.32
48718;BME280;34521;33.042;-96.586;2023-04-07T08:06:02;100614.88;;;20.98;28.34
48718;BME280;34521;33.042;-96.586;2023-04-07T08:08:27;100617.03;;;20.33;28.49
48718;BME280;34521;33.042;-96.586;2023-04-07T08:10:52;100616.09;;;20.32;28.50
48718;BME280;34521;33.042;-96.586;2023-04-07T08:13:17;100617.95;;;20.60;28.64
48718;BME280;34521;33.042;-96.586;2023-04-07T08:15:42;100621.62;;;20.39;28.87
48718;BME280;34521;33.042;-96.586;2023-04-07T08:18:08;100617.18;;;20.22;29.09
48718;BME280;34521;33.042;-96.586;2023-04-07T08:20:33;100596.46;;;20.13;29.21
48718;BME280;34521;33.042;-96.586;2023-04-07T08:22:58;100591.34;;;20.03;29.34
48718;BME280;34521;33.042;-96.586;2023-04-07T08:25:23;100599.64;;;19.85;29.56
48718;BME280;34521;33.042;-96.586;2023-04-07T08:27:48;100604.71;;;19.76;29.70
48718;BME280;34521;33.042;-96.586;2023-04-07T08:30:13;100606.22;;;19.89;29.50
48718;BME280;34521;33.042;-96.586;2023-04-07T08:32:39;100598.58;;;20.11;29.54
48718;BME280;34521;33.042;-96.586;2023-04-07T08:35:03;100598.50;;;19.70;29.69
48718;BME280;34521;33.042;-96.586;2023-04-07T08:37:28;100592.23;;;19.49;29.92
48718;BME280;34521;33.042;-96.586;2023-04-07T08:39:53;100574.24;;;19.89;29.76
48718;BME280;34521;33.042;-96.586;2023-04-07T08:42:19;100566.91;;;18.44;31.50
48718;BME280;34521;33.042;-96.586;2023-04-07T08:44:44;100577.81;;;16.72;33.83
48718;BME280;34521;33.042;-96.586;2023-04-07T08:47:08;100577.95;;;17.48;33.67
48718;BME280;34521;33.042;-96.586;2023-04-07T08:49:36;100572.66;;;19.36;30.33
48718;BME280;34521;33.042;-96.586;2023-04-07T08:51:59;100559.45;;;20.54;29.29
48718;BME280;34521;33.042;-96.586;2023-04-07T08:54:23;100551.96;;;20.77;29.14
48718;BME280;34521;33.042;-96.586;2023-04-07T08:56:53;100547.73;;;20.48;28.99
48718;BME280;34521;33.042;-96.586;2023-04-07T08:59:15;100552.89;;;20.69;28.77
48718;BME280;34521;33.042;-96.586;2023-04-07T09:01:39;100555.03;;;21.02;28.31
48718;BME280;34521;33.042;-96.586;2023-04-07T09:04:04;100561.77;;;21.18;28.11
48718;BME280;34521;33.042;-96.586;2023-04-07T09:06:30;100573.17;;;20.75;28.54
48718;BME280;34521;33.042;-96.586;2023-04-07T09:08:53;100579.18;;;20.70;28.49
48718;BME280;34521;33.042;-96.586;2023-04-07T09:11:18;100575.05;;;20.56;28.70
48718;BME280;34521;33.042;-96.586;2023-04-07T09:13:43;100572.66;;;20.71;28.54
48718;BME280;34521;33.042;-96.586;2023-04-07T09:16:08;100569.99;;;20.60;28.34
48718;BME280;34521;33.042;-96.586;2023-04-07T09:18:34;100566.47;;;20.26;28.75
48718;BME280;34521;33.042;-96.586;2023-04-07T09:21:01;100565.51;;;20.06;28.93
48718;BME280;34521;33.042;-96.586;2023-04-07T09:23:30;100567.19;;;20.17;29.08
48718;BME280;34521;33.042;-96.586;2023-04-07T09:25:49;100570.32;;;20.18;29.07
48718;BME280;34521;33.042;-96.586;2023-04-07T09:28:14;100569.45;;;19.90;29.35
48718;BME280;34521;33.042;-96.586;2023-04-07T09:33:04;100580.05;;;19.58;29.71
48718;BME280;34521;33.042;-96.586;2023-04-07T09:35:29;100567.05;;;19.71;29.53
48718;BME280;34521;33.042;-96.586;2023-04-07T09:38:01;100568.03;;;19.44;29.78
48718;BME280;34521;33.042;-96.586;2023-04-07T09:40:24;100581.09;;;18.05;31.53
48718;BME280;34521;33.042;-96.586;2023-04-07T09:42:45;100589.55;;;17.24;33.70
48718;BME280;34521;33.042;-96.586;2023-04-07T09:45:10;100585.13;;;20.19;29.68
48718;BME280;34521;33.042;-96.586;2023-04-07T09:47:34;100583.22;;;20.39;29.11
48718;BME280;34521;33.042;-96.586;2023-04-07T09:49:59;100587.97;;;19.27;29.91
48718;BME280;34521;33.042;-96.586;2023-04-07T09:54:50;100588.44;;;20.88;28.45
48718;BME280;34521;33.042;-96.586;2023-04-07T09:57:15;100587.57;;;21.33;27.91
48718;BME280;34521;33.042;-96.586;2023-04-07T09:59:41;100590.38;;;20.66;28.30
48718;BME280;34521;33.042;-96.586;2023-04-07T10:02:06;100591.12;;;20.92;28.16
48718;BME280;34521;33.042;-96.586;2023-04-07T10:04:30;100593.40;;;20.70;28.39
48718;BME280;34521;33.042;-96.586;2023-04-07T10:06:55;100593.21;;;20.92;28.16
48718;BME280;34521;33.042;-96.586;2023-04-07T10:09:20;100596.71;;;20.45;28.57
48718;BME280;34521;33.042;-96.586;2023-04-07T10:11:45;100597.00;;;20.21;28.70
48718;BME280;34521;33.042;-96.586;2023-04-07T10:14:11;100598.87;;;19.83;29.10
48718;BME280;34521;33.042;-96.586;2023-04-07T10:16:35;100608.38;;;19.95;29.24
48718;BME280;34521;33.042;-96.586;2023-04-07T10:19:00;100599.76;;;20.06;29.10
48718;BME280;34521;33.042;-96.586;2023-04-07T10:21:25;100594.72;;;19.49;29.43
48718;BME280;34521;33.042;-96.586;2023-04-07T10:23:57;100589.33;;;19.75;29.43
48718;BME280;34521;33.042;-96.586;2023-04-07T10:26:17;100586.65;;;19.68;29.46
48718;BME280;34521;33.042;-96.586;2023-04-07T10:28:42;100587.23;;;19.82;29.55
48718;BME280;34521;33.042;-96.586;2023-04-07T10:31:05;100587.16;;;19.64;29.52
48718;BME280;34521;33.042;-96.586;2023-04-07T10:33:45;100586.58;;;19.68;29.40
48718;BME280;34521;33.042;-96.586;2023-04-07T10:36:05;100588.25;;;19.75;29.63
48718;BME280;34521;33.042;-96.586;2023-04-07T10:38:21;100601.40;;;17.84;31.58
48718;BME280;34521;33.042;-96.586;2023-04-07T10:40:46;100610.88;;;16.99;33.52
48718;BME280;34521;33.042;-96.586;2023-04-07T10:43:11;100607.00;;;19.62;29.81
48718;BME280;34521;33.042;-96.586;2023-04-07T10:45:53;100616.72;;;20.50;28.88
48718;BME280;34521;33.042;-96.586;2023-04-07T10:48:12;100638.42;;;19.33;29.90
48718;BME280;34521;33.042;-96.586;2023-04-07T10:50:26;100631.47;;;17.83;31.97
48718;BME280;34521;33.042;-96.586;2023-04-07T10:53:04;100623.90;;;20.77;28.60
48718;BME280;34521;33.042;-96.586;2023-04-07T10:55:28;100634.64;;;21.16;28.06
48718;BME280;34521;33.042;-96.586;2023-04-07T11:00:15;100648.21;;;20.31;28.34
48718;BME280;34521;33.042;-96.586;2023-04-07T11:02:33;100651.31;;;20.47;28.40
48718;BME280;34521;33.042;-96.586;2023-04-07T11:04:56;100648.22;;;20.54;28.35
48718;BME280;34521;33.042;-96.586;2023-04-07T11:09:46;100651.94;;;19.79;28.79
48718;BME280;34521;33.042;-96.586;2023-04-07T11:12:21;100661.37;;;19.86;28.75
48718;BME280;34521;33.042;-96.586;2023-04-07T11:14:36;100679.77;;;20.03;28.79
48718;BME280;34521;33.042;-96.586;2023-04-07T11:17:02;100692.46;;;20.01;28.89
48718;BME280;34521;33.042;-96.586;2023-04-07T11:19:27;100691.30;;;20.96;27.93
48718;BME280;34521;33.042;-96.586;2023-04-07T11:26:42;100696.65;;;20.69;28.37
48718;BME280;34521;33.042;-96.586;2023-04-07T11:29:07;100699.04;;;20.61;28.22
48718;BME280;34521;33.042;-96.586;2023-04-07T11:31:32;100691.74;;;21.01;28.00
48718;BME280;34521;33.042;-96.586;2023-04-07T11:33:58;100689.30;;;20.82;28.18
48718;BME280;34521;33.042;-96.586;2023-04-07T11:36:28;100686.41;;;20.96;28.03
48718;BME280;34521;33.042;-96.586;2023-04-07T11:38:47;100686.96;;;20.80;28.07
48718;BME280;34521;33.042;-96.586;2023-04-07T11:41:14;100685.37;;;20.74;27.92
48718;BME280;34521;33.042;-96.586;2023-04-07T11:43:37;100692.60;;;19.77;29.56
48718;BME280;34521;33.042;-96.586;2023-04-07T11:46:06;100705.24;;;16.90;33.10
48718;BME280;34521;33.042;-96.586;2023-04-07T11:48:29;100707.85;;;16.67;34.06
48718;BME280;34521;33.042;-96.586;2023-04-07T11:50:52;100704.94;;;18.86;30.94
48718;BME280;34521;33.042;-96.586;2023-04-07T11:53:24;100699.89;;;19.76;29.74
48718;BME280;34521;33.042;-96.586;2023-04-07T11:55:42;100703.90;;;20.24;28.87
48718;BME280;34521;33.042;-96.586;2023-04-07T11:58:08;100704.26;;;19.77;29.30
48718;BME280;34521;33.042;-96.586;2023-04-07T12:00:32;100683.72;;;19.96;29.42
48718;BME280;34521;33.042;-96.586;2023-04-07T12:03:09;100669.55;;;21.13;28.33
48718;BME280;34521;33.042;-96.586;2023-04-07T12:05:23;100674.72;;;20.59;28.47
48718;BME280;34521;33.042;-96.586;2023-04-07T12:07:53;100681.94;;;20.31;28.58
48718;BME280;34521;33.042;-96.586;2023-04-07T12:10:19;100689.25;;;20.76;28.41
48718;BME280;34521;33.042;-96.586;2023-04-07T12:12:38;100701.86;;;20.69;28.44
48718;BME280;34521;33.042;-96.586;2023-04-07T12:15:13;100702.54;;;20.86;28.21
48718;BME280;34521;33.042;-96.586;2023-04-07T12:17:28;100708.69;;;20.83;28.27
48718;BME280;34521;33.042;-96.586;2023-04-07T12:19:53;100713.77;;;21.07;27.99
48718;BME280;34521;33.042;-96.586;2023-04-07T12:22:18;100722.81;;;20.71;28.36
48718;BME280;34521;33.042;-96.586;2023-04-07T12:24:43;100720.23;;;20.60;28.53
48718;BME280;34521;33.042;-96.586;2023-04-07T12:27:14;100706.59;;;20.93;27.99
48718;BME280;34521;33.042;-96.586;2023-04-07T12:29:34;100709.24;;;21.30;27.81
48718;BME280;34521;33.042;-96.586;2023-04-07T12:31:59;100722.09;;;20.67;28.45